KCKM/CKM METAR and TAF weather

Enter ICAO airport designator
Station Type Date Time Source
KCKM METAR 2021/05/15 01:55 UTC NOAA

KCKM 150155Z AUTO 00000KT 10SM CLR 19/08 A3021 RMK A01


Station Type Date Time Source
KCKM Decoded METAR 2021/05/15 01:55 UTC NOAA

Station name not available
May 14, 2021 - 09:55 PM EDT / 2021.05.15 0155 UTC
Wind: Calm:0
Visibility: 10 mile(s):0
Sky conditions: clear
Temperature: 66 F (19 C)
Dew Point: 46 F (8 C)
Relative Humidity: 48%
Pressure (altimeter): 30.21 in. Hg (1023 hPa)
ob: KCKM 150155Z AUTO 00000KT 10SM CLR 19/08 A3021 RMK A01
cycle: 2

Station Type Date Time Source
KCKM TAF UTC NOAA

Error!

Example: see airport list